Time;durP1;ratioP1;P1;durP2;ratioP2;P2;SDS_P1;SDS_P2;PMS_P1;PMS_P2;Temp;Humidity;BMP_temperature;BMP_pressure;BME280_temperature;BME280_humidity;BME280_pressure;Samples;Min_cycle;Max_cycle;Signal;HPM_P1;HPM_P2
2022/10/20 00:01:56;;;;;;;10.57;7.43;;;8.70;99.90;;;;;;6272155;22;20080;-72
2022/10/20 00:04:22;;;;;;;10.37;7.80;;;8.60;99.90;;;;;;6272236;22;20024;-72
2022/10/20 00:06:48;;;;;;;12.00;7.33;;;8.60;99.90;;;;;;6271984;22;20428;-72
2022/10/20 00:09:13;;;;;;;11.97;7.90;;;8.50;99.90;;;;;;6272864;22;20436;-72
2022/10/20 00:11:39;;;;;;;12.57;8.20;;;8.60;99.90;;;;;;6272167;22;20475;-71
2022/10/20 00:14:05;;;;;;;8.33;6.83;;;8.60;99.90;;;;;;6272745;22;20427;-72
2022/10/20 00:16:34;;;;;;;12.10;7.43;;;8.70;99.90;;;;;;6272442;22;20026;-72
2022/10/20 00:19:00;;;;;;;10.23;7.53;;;8.60;99.90;;;;;;6271374;22;20007;-72
2022/10/20 00:21:27;;;;;;;12.07;8.70;;;8.50;99.90;;;;;;6271895;22;20007;-72
2022/10/20 00:23:53;;;;;;;13.30;8.50;;;8.60;99.90;;;;;;6271924;22;19992;-72
2022/10/20 00:26:21;;;;;;;8.83;7.50;;;8.60;99.90;;;;;;6272328;22;20079;-72
2022/10/20 00:28:47;;;;;;;12.13;9.20;;;8.70;99.90;;;;;;6272120;22;20057;-72
2022/10/20 00:31:13;;;;;;;10.13;7.47;;;8.60;99.90;;;;;;6272542;22;20360;-72
2022/10/20 00:33:39;;;;;;;11.43;7.90;;;8.60;99.90;;;;;;6271666;22;20008;-71
2022/10/20 00:36:06;;;;;;;13.40;8.10;;;8.50;99.90;;;;;;6272378;22;20432;-71
2022/10/20 00:38:33;;;;;;;16.77;8.23;;;8.50;99.90;;;;;;6272388;22;20008;-71
2022/10/20 00:40:59;;;;;;;9.83;7.57;;;8.50;99.90;;;;;;6271842;22;19992;-71
2022/10/20 00:44:19;;;;;;;13.13;8.80;;;8.30;99.90;;;;;;6272171;22;19996;-71
2022/10/20 00:46:45;;;;;;;11.80;8.37;;;8.60;99.90;;;;;;6147608;23;20029;-71
2022/10/20 00:49:16;;;;;;;11.87;8.17;;;8.50;99.90;;;;;;6148234;23;20002;-71
2022/10/20 00:51:42;;;;;;;11.93;7.93;;;8.50;99.90;;;;;;6148706;23;20383;-72
2022/10/20 00:54:12;;;;;;;10.53;7.90;;;8.50;99.90;;;;;;6148788;23;20345;-71
2022/10/20 00:56:41;;;;;;;10.03;8.80;;;8.40;99.90;;;;;;6148538;23;20060;-72
2022/10/20 00:59:08;;;;;;;10.97;9.13;;;8.50;99.90;;;;;;6150556;23;20121;-72
2022/10/20 01:01:34;;;;;;;9.20;8.30;;;8.40;99.90;;;;;;6150422;23;20012;-72
2022/10/20 01:04:00;;;;;;;13.23;8.77;;;8.40;99.90;;;;;;6149824;23;20001;-72
2022/10/20 01:06:26;;;;;;;11.43;8.83;;;8.40;99.90;;;;;;6150431;23;20021;-71
2022/10/20 01:08:53;;;;;;;10.33;8.13;;;8.40;99.90;;;;;;6150355;23;20005;-72
2022/10/20 01:11:42;;;;;;;11.10;8.27;;;8.30;99.90;;;;;;6150403;23;20005;-72
2022/10/20 01:14:33;;;;;;;12.03;9.63;;;8.40;99.90;;;;;;6150606;23;20024;-72
2022/10/20 01:17:28;;;;;;;13.33;8.87;;;8.30;99.90;;;;;;6149636;23;20005;-72
2022/10/20 01:20:11;;;;;;;14.38;9.30;;;8.20;99.90;;;;;;6186370;22;20058;-71
2022/10/20 01:23:16;;;;;;;18.33;10.18;;;8.30;99.90;;;;;;6273681;22;20010;-74
2022/10/20 01:26:03;;;;;;;10.05;8.60;;;8.20;99.90;;;;;;6273235;22;20012;-71
2022/10/20 01:28:52;;;;;;;12.50;8.90;;;8.20;99.90;;;;;;6274042;22;20029;-71
2022/10/20 01:31:30;;;;;;;14.63;8.73;;;8.20;99.90;;;;;;6273696;22;19996;-71
2022/10/20 01:34:32;;;;;;;10.13;7.67;;;8.20;99.90;;;;;;6273888;22;20072;-71
2022/10/20 01:37:13;;;;;;;11.40;8.23;;;8.20;99.90;;;;;;6252206;22;20026;-71
2022/10/20 01:39:56;;;;;;;12.60;8.50;;;8.10;99.90;;;;;;6274181;22;20073;-71
2022/10/20 01:42:24;;;;;;;9.70;8.70;;;8.10;99.90;;;;;;6273844;22;20053;-71
2022/10/20 01:44:53;;;;;;;12.60;9.23;;;8.10;99.90;;;;;;6273514;22;20014;-71
2022/10/20 01:47:21;;;;;;;19.43;9.83;;;8.10;99.90;;;;;;6273354;22;20027;-71
2022/10/20 01:49:48;;;;;;;14.37;9.07;;;8.10;99.90;;;;;;6273591;22;20011;-72
2022/10/20 01:52:14;;;;;;;11.53;8.50;;;7.70;99.90;;;;;;6273815;22;20070;-72
2022/10/20 01:54:39;;;;;;;11.47;9.10;;;8.20;99.90;;;;;;6273331;22;20034;-72
2022/10/20 01:57:27;;;;;;;14.30;9.27;;;8.10;99.90;;;;;;6273686;22;20084;-72
2022/10/20 02:00:07;;;;;;;15.70;9.23;;;8.10;99.90;;;;;;6273571;22;20372;-74
2022/10/20 02:02:36;;;;;;;15.10;10.00;;;8.00;99.90;;;;;;6272826;22;20010;-72
2022/10/20 02:05:27;;;;;;;12.53;9.53;;;8.10;99.90;;;;;;6273544;22;19996;-72
2022/10/20 02:08:11;;;;;;;18.33;10.63;;;8.10;99.90;;;;;;6273049;22;20002;-72
2022/10/20 02:10:44;;;;;;;;;;;8.10;99.90;;;;;;6273792;22;20368;-71
2022/10/20 02:13:11;;;;;;;12.67;9.87;;;8.10;99.90;;;;;;6273578;22;20268;-72
2022/10/20 02:15:42;;;;;;;11.83;9.47;;;8.10;99.90;;;;;;6272584;22;20031;-72
2022/10/20 02:18:12;;;;;;;14.13;11.40;;;8.10;99.90;;;;;;6273622;22;19996;-72
2022/10/20 02:20:44;;;;;;;14.60;9.90;;;8.10;99.90;;;;;;6272932;22;20275;-72
2022/10/20 02:23:10;;;;;;;13.37;9.60;;;8.10;99.90;;;;;;6273534;22;20022;-72
2022/10/20 02:25:38;;;;;;;16.67;9.97;;;8.10;99.90;;;;;;6273112;22;20451;-72
2022/10/20 02:28:07;;;;;;;15.83;10.83;;;8.10;99.90;;;;;;6273153;22;20018;-72
2022/10/20 02:30:34;;;;;;;14.60;10.00;;;8.20;99.90;;;;;;6272915;22;20016;-72
2022/10/20 02:33:00;;;;;;;12.67;9.93;;;;;;;;;;6272979;22;20041;-72
2022/10/20 02:35:29;;;;;;;12.00;8.70;;;8.20;99.90;;;;;;6273094;22;20027;-72
2022/10/20 02:37:56;;;;;;;14.97;9.53;;;8.10;99.90;;;;;;6273043;22;20004;-72
2022/10/20 02:40:22;;;;;;;16.93;10.87;;;8.20;99.90;;;;;;6273134;22;19995;-72
2022/10/20 02:42:47;;;;;;;15.07;9.50;;;8.20;99.90;;;;;;6272798;22;20341;-72
2022/10/20 02:45:13;;;;;;;13.17;9.83;;;8.30;99.90;;;;;;6272324;22;20007;-72
2022/10/20 02:47:39;;;;;;;13.80;8.23;;;8.20;99.90;;;;;;6272946;22;19996;-72
2022/10/20 02:50:05;;;;;;;13.70;8.60;;;8.20;99.90;;;;;;6272964;22;20011;-72
2022/10/20 02:52:30;;;;;;;12.50;8.93;;;8.20;99.90;;;;;;6272650;22;20326;-72
2022/10/20 02:54:56;;;;;;;16.57;9.87;;;8.20;99.90;;;;;;6272738;22;20012;-72
2022/10/20 02:57:21;;;;;;;13.00;9.67;;;8.20;99.90;;;;;;6272779;22;20325;-72
2022/10/20 02:59:47;;;;;;;11.07;9.73;;;8.10;99.90;;;;;;6270495;22;20329;-72
2022/10/20 03:02:13;;;;;;;12.67;9.33;;;10.60;99.90;;;;;;6273019;22;20002;-72
2022/10/20 03:04:38;;;;;;;12.47;8.77;;;8.00;99.90;;;;;;6270979;22;19996;-72
2022/10/20 03:07:04;;;;;;;15.73;10.37;;;8.00;99.90;;;;;;6272735;22;20003;-72
2022/10/20 03:09:29;;;;;;;15.17;10.10;;;8.10;99.90;;;;;;6272495;22;20653;-72
2022/10/20 03:11:55;;;;;;;13.97;9.13;;;8.10;99.90;;;;;;6270556;22;19996;-72
2022/10/20 03:14:20;;;;;;;16.10;9.60;;;8.10;99.90;;;;;;6269356;22;20057;-72
2022/10/20 03:16:46;;;;;;;15.70;10.27;;;;;;;;;;6270252;22;20031;-72
2022/10/20 03:19:12;;;;;;;17.13;10.27;;;8.10;99.90;;;;;;6270528;22;20035;-72
2022/10/20 03:21:37;;;;;;;15.03;10.03;;;8.10;99.90;;;;;;6269952;22;20406;-72
2022/10/20 03:24:03;;;;;;;14.60;9.47;;;8.00;99.90;;;;;;6270366;22;20010;-72
2022/10/20 03:26:29;;;;;;;12.37;10.13;;;8.00;99.90;;;;;;6270469;22;20027;-72
2022/10/20 03:28:54;;;;;;;16.33;10.00;;;8.10;99.90;;;;;;6271876;22;20527;-72
2022/10/20 03:31:20;;;;;;;15.33;8.77;;;8.10;99.90;;;;;;6272600;22;20026;-72
2022/10/20 03:33:45;;;;;;;13.50;10.23;;;8.00;99.90;;;;;;6272542;22;20004;-72
2022/10/20 03:36:11;;;;;;;13.83;10.60;;;8.00;99.90;;;;;;6272434;22;20058;-72
2022/10/20 03:38:39;;;;;;;13.33;10.33;;;8.10;99.90;;;;;;6271438;22;20405;-72
2022/10/20 03:41:04;;;;;;;12.93;9.53;;;8.00;99.90;;;;;;6272671;22;20003;-72
2022/10/20 03:43:30;;;;;;;12.43;9.50;;;8.00;99.90;;;;;;6271965;22;20373;-72
2022/10/20 03:46:04;;;;;;;13.57;9.30;;;8.00;99.90;;;;;;6272228;22;20426;-72
2022/10/20 03:48:30;;;;;;;13.55;10.43;;;7.90;99.90;;;;;;6272485;22;20429;-72
2022/10/20 03:50:55;;;;;;;15.30;9.63;;;8.10;99.90;;;;;;6272303;22;20273;-72
2022/10/20 03:53:21;;;;;;;13.33;10.47;;;7.90;99.90;;;;;;6272326;22;20083;-72
2022/10/20 03:55:46;;;;;;;17.27;10.57;;;8.10;99.90;;;;;;6272144;22;20039;-72
2022/10/20 03:58:12;;;;;;;12.90;10.83;;;7.30;99.90;;;;;;6272019;22;20329;-72
2022/10/20 04:00:37;;;;;;;15.17;9.97;;;8.10;99.90;;;;;;6271967;22;20424;-72
2022/10/20 04:03:03;;;;;;;13.53;10.43;;;8.10;99.90;;;;;;6272549;22;20480;-72
2022/10/20 04:05:28;;;;;;;16.73;11.53;;;7.90;99.90;;;;;;6272364;22;20482;-72
2022/10/20 04:07:54;;;;;;;13.83;9.57;;;8.10;99.90;;;;;;6272081;22;20306;-72
2022/10/20 04:10:20;;;;;;;17.10;12.07;;;8.10;99.90;;;;;;6272215;22;20081;-72
2022/10/20 04:12:45;;;;;;;15.63;10.73;;;8.20;99.90;;;;;;6271591;22;20075;-72
2022/10/20 04:15:11;;;;;;;15.30;10.77;;;8.20;99.90;;;;;;6272345;22;20003;-72
2022/10/20 04:17:37;;;;;;;22.30;10.93;;;8.20;99.90;;;;;;6272221;22;20071;-72
2022/10/20 04:20:04;;;;;;;13.23;9.80;;;8.30;99.90;;;;;;6272383;22;19996;-72
2022/10/20 04:22:30;;;;;;;13.07;9.73;;;8.20;99.90;;;;;;6272180;22;20000;-72
2022/10/20 04:24:55;;;;;;;15.87;11.83;;;8.30;99.90;;;;;;6271737;22;20433;-72
2022/10/20 04:27:21;;;;;;;13.00;9.77;;;8.30;99.90;;;;;;6271543;22;20000;-72
2022/10/20 04:29:47;;;;;;;12.67;10.10;;;8.30;99.90;;;;;;6271577;22;20430;-72
2022/10/20 04:32:13;;;;;;;18.97;12.63;;;8.30;99.90;;;;;;6272290;22;20023;-72
2022/10/20 04:34:38;;;;;;;16.50;11.03;;;8.20;99.90;;;;;;6272797;22;20022;-72
2022/10/20 04:37:04;;;;;;;13.23;11.33;;;8.30;99.90;;;;;;6273925;22;20067;-72
2022/10/20 04:39:29;;;;;;;15.07;12.40;;;8.30;99.90;;;;;;6273708;22;20003;-72
2022/10/20 04:41:55;;;;;;;16.13;11.07;;;8.40;99.90;;;;;;6273018;22;19996;-73
2022/10/20 04:44:21;;;;;;;16.10;12.27;;;8.30;99.90;;;;;;6273155;22;20487;-72
2022/10/20 04:46:46;;;;;;;20.77;11.47;;;8.40;99.90;;;;;;6273399;22;20118;-72
2022/10/20 04:49:13;;;;;;;19.00;11.93;;;8.40;99.90;;;;;;6273580;22;20011;-72
2022/10/20 04:51:38;;;;;;;16.77;11.57;;;8.40;99.90;;;;;;6273172;22;20505;-72
2022/10/20 04:54:04;;;;;;;12.97;10.27;;;8.40;99.90;;;;;;6273875;22;20031;-72
2022/10/20 04:56:29;;;;;;;14.30;10.80;;;8.30;99.90;;;;;;6273665;22;20075;-72
2022/10/20 04:58:57;;;;;;;15.53;11.63;;;8.40;99.90;;;;;;6273245;22;19996;-72
2022/10/20 05:01:25;;;;;;;17.90;11.60;;;8.30;99.90;;;;;;6273892;22;20045;-72
2022/10/20 05:03:50;;;;;;;15.03;9.83;;;10.90;99.90;;;;;;6273862;22;20333;-72
2022/10/20 05:06:21;;;;;;;16.27;11.00;;;8.40;99.90;;;;;;6273886;22;20000;-72
2022/10/20 05:08:48;;;;;;;15.13;10.53;;;8.30;99.90;;;;;;6273694;22;20452;-72
2022/10/20 05:11:15;;;;;;;16.10;10.37;;;8.50;99.90;;;;;;6273520;22;20034;-72
2022/10/20 05:13:42;;;;;;;16.23;11.87;;;8.30;99.90;;;;;;6273851;22;20053;-72
2022/10/20 05:16:08;;;;;;;15.47;11.77;;;8.50;99.90;;;;;;6274079;22;20067;-72
2022/10/20 05:18:35;;;;;;;17.53;12.20;;;8.40;99.90;;;;;;6274163;22;20000;-73
2022/10/20 05:21:14;;;;;;;13.50;10.53;;;8.50;99.90;;;;;;6273765;22;20035;-72
2022/10/20 05:23:41;;;;;;;13.40;11.20;;;8.50;99.90;;;;;;6273183;22;20011;-72
2022/10/20 05:26:13;;;;;;;14.00;9.77;;;9.60;99.90;;;;;;6272123;22;20461;-72
2022/10/20 05:28:42;;;;;;;18.57;11.37;;;8.50;99.90;;;;;;6271635;22;20433;-72
2022/10/20 05:31:08;;;;;;;22.53;13.90;;;8.40;99.90;;;;;;6273986;22;20071;-72
2022/10/20 05:33:34;;;;;;;15.10;11.13;;;8.50;99.90;;;;;;6273994;22;20008;-72
2022/10/20 05:36:05;;;;;;;16.10;11.70;;;8.40;99.90;;;;;;6273581;22;20015;-72
2022/10/20 05:38:30;;;;;;;15.37;11.63;;;8.40;99.90;;;;;;6273461;22;20048;-73
2022/10/20 05:41:05;;;;;;;14.87;11.37;;;8.40;99.90;;;;;;6273651;22;20508;-72
2022/10/20 05:43:30;;;;;;;18.03;11.73;;;8.50;99.90;;;;;;6271713;22;20494;-72
2022/10/20 05:45:56;;;;;;;19.40;13.43;;;8.40;99.90;;;;;;6273919;22;20011;-72
2022/10/20 05:48:22;;;;;;;18.07;11.50;;;8.40;99.90;;;;;;6273786;22;20008;-72
2022/10/20 05:50:47;;;;;;;17.13;12.77;;;8.50;99.90;;;;;;6273609;22;20015;-72
2022/10/20 05:53:12;;;;;;;15.57;11.83;;;8.40;99.90;;;;;;6273335;22;19999;-72
2022/10/20 05:55:38;;;;;;;19.73;13.30;;;8.30;99.90;;;;;;6273313;22;20014;-72
2022/10/20 05:58:04;;;;;;;17.17;12.70;;;8.30;99.90;;;;;;6273888;22;20000;-72
2022/10/20 06:00:30;;;;;;;13.60;11.53;;;8.40;99.90;;;;;;6273441;22;19999;-72
2022/10/20 06:02:56;;;;;;;16.70;12.63;;;8.50;99.90;;;;;;6273561;22;19996;-72
2022/10/20 06:05:22;;;;;;;26.03;12.70;;;8.40;99.90;;;;;;6273792;22;20000;-72
2022/10/20 06:07:48;;;;;;;18.77;13.67;;;8.40;99.90;;;;;;6272766;22;20073;-72
2022/10/20 06:10:13;;;;;;;18.27;12.97;;;8.40;99.90;;;;;;6273761;22;20421;-73
2022/10/20 06:12:39;;;;;;;18.83;14.03;;;8.50;99.90;;;;;;6273376;22;20003;-72
2022/10/20 06:15:05;;;;;;;22.03;12.50;;;8.50;99.90;;;;;;6273381;22;20004;-72
2022/10/20 06:17:30;;;;;;;18.53;12.50;;;8.50;99.90;;;;;;6273516;22;20007;-72
2022/10/20 06:19:56;;;;;;;21.17;12.63;;;7.40;99.90;;;;;;6273377;22;20094;-72
2022/10/20 06:22:21;;;;;;;17.70;12.43;;;8.60;99.90;;;;;;6272710;22;20465;-72
2022/10/20 06:24:47;;;;;;;17.87;12.37;;;8.30;99.90;;;;;;6272875;22;20086;-72
2022/10/20 06:27:12;;;;;;;19.80;14.47;;;8.50;99.90;;;;;;6273308;22;20074;-73
2022/10/20 06:29:38;;;;;;;17.53;12.90;;;8.70;99.90;;;;;;6273169;22;20066;-73
2022/10/20 06:32:03;;;;;;;20.00;13.10;;;8.60;99.90;;;;;;6273485;22;20004;-72
2022/10/20 06:34:29;;;;;;;18.37;12.43;;;8.70;99.90;;;;;;6273295;22;20008;-72
2022/10/20 06:36:55;;;;;;;18.37;12.93;;;8.70;99.90;;;;;;6272346;22;20000;-72
2022/10/20 06:39:22;;;;;;;19.40;14.00;;;8.70;99.90;;;;;;6272858;22;19999;-72
2022/10/20 06:41:49;;;;;;;19.27;12.83;;;8.70;99.90;;;;;;6272796;22;20004;-73
2022/10/20 06:44:16;;;;;;;17.03;14.17;;;8.80;99.90;;;;;;6272936;22;20294;-73
2022/10/20 06:46:42;;;;;;;17.53;13.13;;;8.70;99.90;;;;;;6272749;22;19999;-72
2022/10/20 06:49:10;;;;;;;15.67;12.37;;;8.70;99.90;;;;;;6273063;22;20074;-72
2022/10/20 06:51:36;;;;;;;19.10;12.73;;;8.70;99.90;;;;;;6272167;22;20007;-69
2022/10/20 06:54:02;;;;;;;18.83;13.37;;;8.80;99.90;;;;;;6271228;22;19999;-68
2022/10/20 06:56:30;;;;;;;19.13;13.40;;;8.70;99.90;;;;;;6272014;22;19995;-68
2022/10/20 06:58:57;;;;;;;19.37;13.83;;;8.80;99.90;;;;;;6271900;22;20456;-68
2022/10/20 07:01:26;;;;;;;28.13;16.77;;;8.90;99.90;;;;;;6272243;22;20020;-69
2022/10/20 07:03:58;;;;;;;18.43;13.63;;;8.90;99.90;;;;;;6272072;22;20299;-69
2022/10/20 07:06:29;;;;;;;18.70;13.97;;;9.00;99.90;;;;;;6271426;22;20007;-69
2022/10/20 07:08:55;;;;;;;17.83;12.87;;;9.00;99.90;;;;;;6271181;22;20022;-69
2022/10/20 07:11:26;;;;;;;20.23;13.93;;;9.00;99.90;;;;;;6272399;22;20004;-69
2022/10/20 07:13:52;;;;;;;23.90;15.10;;;9.10;99.90;;;;;;6272934;22;20007;-69
2022/10/20 07:16:21;;;;;;;19.00;14.20;;;9.10;99.90;;;;;;6273260;22;20014;-69
2022/10/20 07:18:47;;;;;;;20.10;13.70;;;9.30;99.90;;;;;;6273095;22;20004;-69
2022/10/20 07:21:19;;;;;;;18.53;13.60;;;9.30;99.90;;;;;;6272691;22;20486;-69
2022/10/20 07:23:45;;;;;;;17.60;13.83;;;9.30;99.90;;;;;;6272999;22;20003;-70
2022/10/20 07:26:14;;;;;;;19.33;13.40;;;9.30;99.90;;;;;;6272997;22;20012;-70
2022/10/20 07:28:43;;;;;;;16.70;12.80;;;9.40;99.90;;;;;;6272985;22;20031;-69
2022/10/20 07:31:12;;;;;;;20.57;14.37;;;9.40;99.90;;;;;;6272088;22;19991;-69
2022/10/20 07:33:38;;;;;;;19.03;12.17;;;9.50;99.90;;;;;;6272099;22;20034;-69
2022/10/20 07:36:33;;;;;;;16.20;13.67;;;9.50;99.90;;;;;;6272233;22;20033;-69
2022/10/20 07:39:03;;;;;;;19.33;13.93;;;9.70;99.90;;;;;;6247140;22;20034;-69
2022/10/20 07:41:29;;;;;;;18.50;13.57;;;9.60;99.90;;;;;;6273265;22;20429;-69
2022/10/20 07:43:55;;;;;;;16.20;13.30;;;9.60;99.90;;;;;;6272715;22;20085;-69
2022/10/20 07:46:21;;;;;;;21.33;14.20;;;9.60;99.90;;;;;;6272816;22;20452;-69
2022/10/20 07:48:47;;;;;;;19.47;13.47;;;9.70;99.90;;;;;;6271431;22;20371;-69
2022/10/20 07:51:33;;;;;;;22.10;15.40;;;9.70;99.90;;;;;;6272716;22;19996;-70
2022/10/20 07:54:02;;;;;;;22.27;14.30;;;9.70;99.90;;;;;;6272429;22;20011;-69
2022/10/20 07:56:30;;;;;;;19.57;14.93;;;9.80;99.90;;;;;;6272284;22;20372;-70
2022/10/20 07:58:56;;;;;;;20.53;14.43;;;9.80;99.90;;;;;;6272666;22;20000;-69
2022/10/20 08:01:22;;;;;;;22.93;13.43;;;9.80;99.90;;;;;;6272814;22;20000;-70
2022/10/20 08:03:47;;;;;;;18.00;13.30;;;9.80;99.90;;;;;;6272352;22;20027;-69
2022/10/20 08:06:13;;;;;;;16.50;13.33;;;9.90;99.90;;;;;;6272892;22;20011;-70
2022/10/20 08:08:38;;;;;;;19.63;15.37;;;9.90;99.90;;;;;;6274847;22;20046;-69
2022/10/20 08:11:04;;;;;;;19.23;14.40;;;10.00;99.90;;;;;;6275156;22;20045;-69
2022/10/20 08:13:30;;;;;;;19.20;14.67;;;10.10;99.90;;;;;;6274862;22;20003;-69
2022/10/20 08:15:56;;;;;;;21.87;14.87;;;10.00;99.90;;;;;;6274647;22;20425;-69
2022/10/20 08:18:22;;;;;;;17.87;14.57;;;10.10;99.90;;;;;;6274412;22;20000;-70
2022/10/20 08:20:47;;;;;;;18.73;14.50;;;10.10;99.90;;;;;;6274666;22;19999;-69
2022/10/20 08:23:14;;;;;;;17.77;13.80;;;10.20;99.90;;;;;;6274872;22;20078;-69
2022/10/20 08:25:40;;;;;;;16.03;13.93;;;10.30;99.90;;;;;;6274293;22;20369;-69
2022/10/20 08:28:06;;;;;;;18.70;13.53;;;10.40;99.90;;;;;;6274623;22;19995;-69
2022/10/20 08:30:32;;;;;;;17.57;14.10;;;10.50;99.90;;;;;;6274696;22;20003;-69
2022/10/20 08:32:58;;;;;;;18.30;15.23;;;;;;;;;;6274193;22;20003;-69
2022/10/20 08:35:24;;;;;;;19.60;15.43;;;10.60;99.90;;;;;;6274622;22;20417;-70
2022/10/20 08:37:49;;;;;;;20.93;15.40;;;10.70;99.90;;;;;;6274432;22;20007;-69
2022/10/20 08:40:19;;;;;;;18.60;14.70;;;10.90;99.90;;;;;;6274556;22;20000;-69
2022/10/20 08:42:45;;;;;;;19.40;14.50;;;10.90;99.90;;;;;;6274450;22;20053;-69
2022/10/20 08:45:17;;;;;;;19.50;13.97;;;10.90;99.90;;;;;;6274665;22;20079;-70
2022/10/20 08:47:45;;;;;;;19.90;13.90;;;11.10;99.90;;;;;;6273996;22;19996;-69
2022/10/20 08:50:15;;;;;;;18.33;16.27;;;11.20;99.90;;;;;;6274597;22;20028;-69
2022/10/20 08:52:42;;;;;;;17.60;13.90;;;11.20;99.90;;;;;;6274451;22;20126;-69
2022/10/20 08:55:28;;;;;;;17.05;14.57;;;11.40;99.90;;;;;;6274475;22;20008;-69
2022/10/20 08:58:01;;;;;;;23.00;14.07;;;11.50;99.90;;;;;;6274408;22;19996;-69
2022/10/20 09:00:29;;;;;;;17.33;14.02;;;11.60;99.90;;;;;;6274698;22;19996;-69
2022/10/20 09:02:55;;;;;;;17.00;13.77;;;11.60;99.90;;;;;;6273158;22;20079;-69
2022/10/20 09:05:25;;;;;;;18.23;15.32;;;11.80;99.90;;;;;;6273852;22;20387;-69
2022/10/20 09:07:52;;;;;;;23.48;14.95;;;12.30;99.90;;;;;;6272527;22;20027;-69
2022/10/20 09:10:30;;;;;;;19.67;14.90;;;11.90;99.90;;;;;;6274425;22;20007;-69
2022/10/20 09:12:56;;;;;;;17.75;15.68;;;12.00;99.90;;;;;;6274304;22;20417;-69
2022/10/20 09:15:22;;;;;;;16.95;13.65;;;12.10;99.90;;;;;;6272510;22;20042;-69
2022/10/20 09:17:59;;;;;;;18.65;14.55;;;12.20;99.90;;;;;;6273024;22;20324;-69
2022/10/20 09:20:47;;;;;;;18.42;14.73;;;12.30;99.90;;;;;;6274151;22;20076;-70
2022/10/20 09:23:18;;;;;;;21.40;14.60;;;12.30;99.90;;;;;;6274390;22;20007;-69
2022/10/20 09:25:45;;;;;;;19.17;15.23;;;12.40;99.90;;;;;;6273916;22;20039;-69
2022/10/20 09:28:26;;;;;;;19.08;16.38;;;12.50;99.90;;;;;;6272942;22;19999;-69
2022/10/20 09:30:54;;;;;;;24.02;16.40;;;12.50;99.90;;;;;;6273497;22;19996;-69
2022/10/20 09:33:33;;;;;;;23.42;16.83;;;12.60;99.90;;;;;;6274253;22;20082;-69
2022/10/20 09:36:14;;;;;;;21.23;14.43;;;12.60;99.90;;;;;;6273734;22;20050;-69
2022/10/20 09:38:49;;;;;;;20.20;15.65;;;12.60;99.90;;;;;;6273796;22;19999;-69
2022/10/20 09:41:22;;;;;;;20.50;16.30;;;12.70;99.90;;;;;;6273735;22;20703;-69
2022/10/20 09:44:01;;;;;;;21.73;15.93;;;12.60;99.90;;;;;;6274182;22;20521;-69
2022/10/20 09:46:33;;;;;;;18.08;14.93;;;12.80;99.90;;;;;;6273152;22;20003;-69
2022/10/20 09:48:59;;;;;;;16.98;14.10;;;12.80;99.90;;;;;;6273278;22;20010;-69
2022/10/20 09:51:29;;;;;;;16.98;13.93;;;12.90;99.90;;;;;;6273646;22;20334;-69
2022/10/20 09:54:04;;;;;;;16.52;14.30;;;12.90;99.90;;;;;;6273556;22;20451;-69
2022/10/20 09:56:36;;;;;;;16.73;14.13;;;13.00;99.90;;;;;;6273406;22;20394;-69
2022/10/20 09:59:06;;;;;;;21.13;14.63;;;13.10;99.90;;;;;;6273468;22;20000;-69
2022/10/20 10:01:32;;;;;;;17.95;14.85;;;13.10;99.90;;;;;;6273414;22;20011;-69
2022/10/20 10:04:01;;;;;;;15.68;13.45;;;13.10;99.90;;;;;;6273721;22;19996;-69
2022/10/20 10:06:36;;;;;;;21.25;15.07;;;13.10;99.90;;;;;;6273500;22;20003;-69
2022/10/20 10:09:23;;;;;;;20.35;15.40;;;13.20;99.90;;;;;;6273564;22;19999;-69
2022/10/20 10:12:24;;;;;;;19.23;13.90;;;13.10;99.90;;;;;;6273633;22;20098;-69
2022/10/20 10:14:53;;;;;;;17.30;14.40;;;13.10;99.90;;;;;;6246635;22;19999;-70
2022/10/20 10:17:30;;;;;;;18.17;14.65;;;13.10;99.90;;;;;;6273599;22;20083;-69
2022/10/20 10:19:56;;;;;;;16.30;14.05;;;13.20;99.90;;;;;;6273553;22;20042;-69
2022/10/20 10:22:22;;;;;;;20.17;15.75;;;13.20;99.90;;;;;;6273572;22;20000;-69
2022/10/20 10:24:48;;;;;;;18.05;15.95;;;13.30;99.90;;;;;;6273414;22;20023;-69
2022/10/20 10:27:20;;;;;;;20.02;14.05;;;13.30;99.90;;;;;;6273775;22;20000;-69
2022/10/20 10:29:46;;;;;;;16.67;13.27;;;13.40;99.90;;;;;;6272583;22;20023;-70
2022/10/20 10:32:27;;;;;;;20.02;13.85;;;13.30;99.90;;;;;;6273793;22;19999;-70
2022/10/20 10:35:36;;;;;;;16.95;13.50;;;13.40;99.90;;;;;;6273624;22;20073;-70
2022/10/20 10:38:02;;;;;;;15.88;12.93;;;13.50;99.90;;;;;;6273829;22;19992;-70
2022/10/20 10:40:34;;;;;;;16.92;14.20;;;13.60;99.90;;;;;;6273500;22;20053;-69
2022/10/20 10:43:21;;;;;;;15.38;13.75;;;13.60;99.90;;;;;;6272894;22;20087;-70
2022/10/20 10:45:55;;;;;;;17.05;13.48;;;13.70;99.90;;;;;;6271624;22;20147;-69
2022/10/20 10:48:55;;;;;;;15.82;13.20;;;13.70;99.90;;;;;;6273428;22;20011;-69
2022/10/20 10:51:45;;;;;;;13.93;11.38;;;13.80;99.90;;;;;;6272968;22;20050;-69
2022/10/20 10:54:16;;;;;;;14.40;11.45;;;13.90;99.90;;;;;;6273429;22;20034;-68
2022/10/20 10:56:47;;;;;;;14.85;13.15;;;13.90;99.90;;;;;;6273217;22;20004;-69
2022/10/20 10:59:31;;;;;;;15.82;12.32;;;14.00;99.90;;;;;;6272910;22;20000;-69
2022/10/20 11:02:27;;;;;;;20.27;13.73;;;14.00;99.90;;;;;;6273359;22;20008;-68
2022/10/20 11:05:17;;;;;;;19.00;13.48;;;14.10;99.90;;;;;;6272962;22;20026;-69
2022/10/20 11:08:08;;;;;;;15.95;13.35;;;14.10;99.90;;;;;;6273017;22;19992;-69
2022/10/20 11:10:37;;;;;;;20.38;14.38;;;14.20;99.90;;;;;;6272873;22;20193;-71
2022/10/20 11:13:21;;;;;;;15.98;12.77;;;14.10;99.90;;;;;;6272404;22;19996;-68
2022/10/20 11:15:51;;;;;;;;;;;14.00;99.90;;;;;;6272425;22;20018;-69
2022/10/20 11:18:38;;;;;;;16.85;13.35;;;13.70;99.90;;;;;;6272823;22;20080;-69
2022/10/20 11:21:31;;;;;;;17.95;14.82;;;13.90;99.90;;;;;;6273070;22;20421;-69
2022/10/20 11:24:03;;;;;;;22.20;16.45;;;13.90;99.90;;;;;;6272643;22;20083;-69
2022/10/20 11:26:59;;;;;;;18.55;14.75;;;13.90;99.90;;;;;;6272162;22;20008;-69
2022/10/20 11:29:30;;;;;;;18.55;14.57;;;16.10;99.90;;;;;;6256780;22;20341;-69
2022/10/20 11:32:21;;;;;;;15.02;13.43;;;13.80;99.90;;;;;;6272829;22;20003;-69
2022/10/20 11:35:21;;;;;;;22.33;15.07;;;13.80;99.90;;;;;;6272926;22;19996;-69
2022/10/20 11:37:53;;;;;;;19.05;14.43;;;13.70;99.90;;;;;;6271516;22;20467;-69
2022/10/20 11:40:29;;;;;;;16.52;13.05;;;13.80;99.90;;;;;;6272757;22;19996;-69
2022/10/20 11:43:17;;;;;;;18.02;15.32;;;13.70;99.90;;;;;;6271870;22;20004;-69
2022/10/20 11:46:00;;;;;;;17.08;15.02;;;13.70;99.90;;;;;;6272669;22;20004;-69
2022/10/20 11:48:41;;;;;;;24.80;14.60;;;13.80;99.90;;;;;;6271153;22;20499;-69
2022/10/20 11:51:28;;;;;;;19.38;16.60;;;13.70;99.90;;;;;;6272910;22;20003;-70
2022/10/20 11:54:20;;;;;;;21.95;15.68;;;13.60;99.90;;;;;;6271980;22;19996;-69
2022/10/20 11:57:04;;;;;;;20.83;16.38;;;13.60;99.90;;;;;;6271186;22;20099;-69
2022/10/20 11:59:45;;;;;;;19.48;15.43;;;13.70;99.90;;;;;;6272357;22;20004;-69
2022/10/20 12:02:28;;;;;;;26.15;17.58;;;13.60;99.90;;;;;;6271732;22;19996;-69
2022/10/20 12:05:15;;;;;;;22.30;17.23;;;13.60;99.90;;;;;;6272786;22;20401;-71
2022/10/20 12:07:40;;;;;;;20.80;16.70;;;13.50;99.90;;;;;;6272603;22;20023;-68
2022/10/20 12:10:37;;;;;;;23.63;17.92;;;13.60;99.90;;;;;;6270693;22;20004;-69
2022/10/20 12:13:23;;;;;;;27.02;19.75;;;13.70;99.90;;;;;;6272095;22;19995;-69
2022/10/20 12:15:51;;;;;;;20.75;17.80;;;13.60;99.90;;;;;;6272171;22;20471;-69
2022/10/20 12:18:23;;;;;;;25.48;19.80;;;13.70;99.90;;;;;;6272140;22;19995;-69
2022/10/20 12:20:59;;;;;;;19.73;17.65;;;14.10;99.90;;;;;;6272496;22;20006;-69
2022/10/20 12:23:48;;;;;;;29.77;18.67;;;13.70;99.90;;;;;;6271733;22;19996;-69
2022/10/20 12:26:28;;;;;;;29.85;19.20;;;13.70;99.90;;;;;;6271721;22;20575;-69
2022/10/20 12:28:55;;;;;;;24.90;18.73;;;13.70;99.90;;;;;;6272439;22;20007;-69
2022/10/20 12:31:21;;;;;;;29.10;21.90;;;13.60;99.90;;;;;;6271813;22;20000;-68
2022/10/20 12:33:49;;;;;;;28.05;19.80;;;13.40;99.90;;;;;;6271100;22;20097;-68
2022/10/20 12:36:18;;;;;;;27.88;20.60;;;13.50;99.90;;;;;;6271883;22;20000;-68
2022/10/20 12:39:08;;;;;;;24.95;20.25;;;13.50;99.90;;;;;;6271022;22;20007;-68
2022/10/20 12:41:38;;;;;;;28.55;22.90;;;13.50;99.90;;;;;;6270189;22;20011;-69
2022/10/20 12:44:06;;;;;;;30.40;21.65;;;13.90;99.90;;;;;;6271557;22;20421;-69
2022/10/20 12:46:36;;;;;;;39.47;26.23;;;13.70;99.90;;;;;;6272103;22;20030;-69
2022/10/20 12:49:05;;;;;;;31.67;20.60;;;13.80;99.90;;;;;;6271975;22;20011;-69
2022/10/20 12:51:48;;;;;;;28.52;21.75;;;13.80;99.90;;;;;;6271481;22;19995;-69
2022/10/20 12:54:33;;;;;;;28.05;22.15;;;13.90;99.90;;;;;;6272249;22;20715;-69
2022/10/20 12:57:03;;;;;;;28.83;23.75;;;14.00;99.90;;;;;;6272501;22;20022;-69
2022/10/20 12:59:28;;;;;;;29.73;22.25;;;14.30;99.90;;;;;;6274169;22;20325;-69